Time;durP1;ratioP1;P1;durP2;ratioP2;P2;SDS_P1;SDS_P2;PMS_P1;PMS_P2;Temp;Humidity;BMP_temperature;BMP_pressure;BME280_temperature;BME280_humidity;BME280_pressure;Samples;Min_cycle;Max_cycle;Signal;HPM_P1;HPM_P2
2023/06/11 00:01:14;;;;;;;11.10;10.20;;;21.50;99.90;;;;;;5010793;28;20520;-70
2023/06/11 00:03:46;;;;;;;11.50;10.50;;;21.40;99.90;;;;;;5010484;28;20254;-70
2023/06/11 00:06:17;;;;;;;11.33;10.33;;;21.50;99.90;;;;;;5011011;28;20797;-70
2023/06/11 00:08:47;;;;;;;11.00;10.10;;;21.40;99.90;;;;;;5010939;28;20454;-70
2023/06/11 00:11:13;;;;;;;10.50;9.70;;;21.30;99.90;;;;;;5010736;28;20410;-70
2023/06/11 00:13:39;;;;;;;10.80;9.90;;;21.20;99.90;;;;;;5009984;28;20504;-70
2023/06/11 00:16:05;;;;;;;11.10;10.20;;;21.20;99.90;;;;;;5010878;28;20506;-70
2023/06/11 00:18:31;;;;;;;10.47;9.67;;;21.20;99.90;;;;;;5010602;28;20223;-70
2023/06/11 00:20:58;;;;;;;12.40;10.20;;;21.20;99.90;;;;;;5009757;28;20989;-70
2023/06/11 00:23:24;;;;;;;11.20;10.30;;;21.20;99.90;;;;;;5009511;28;20210;-70
2023/06/11 00:25:52;;;;;;;11.43;10.40;;;21.20;99.90;;;;;;5010471;28;20410;-70
2023/06/11 00:28:18;;;;;;;10.40;9.50;;;21.20;99.90;;;;;;5019977;28;20449;-70
2023/06/11 00:30:44;;;;;;;11.27;10.20;;;21.20;99.90;;;;;;5030221;28;20417;-70
2023/06/11 00:33:10;;;;;;;10.53;9.73;;;21.10;99.90;;;;;;5029707;28;21015;-70
2023/06/11 00:35:37;;;;;;;10.70;9.90;;;21.10;99.90;;;;;;5030198;28;20191;-70
2023/06/11 00:38:02;;;;;;;10.67;9.73;;;21.10;99.90;;;;;;5030104;28;20448;-70
2023/06/11 00:40:28;;;;;;;10.63;9.70;;;21.10;99.90;;;;;;5029981;28;20961;-70
2023/06/11 00:42:54;;;;;;;10.93;9.90;;;21.10;99.90;;;;;;5029394;28;20170;-70
2023/06/11 00:45:22;;;;;;;10.83;9.93;;;21.10;99.90;;;;;;5029786;28;20171;-71
2023/06/11 00:47:48;;;;;;;10.97;9.97;;;21.00;99.90;;;;;;5029116;28;20475;-71
2023/06/11 00:50:15;;;;;;;10.90;9.90;;;21.00;99.90;;;;;;5029956;28;20827;-71
2023/06/11 00:52:42;;;;;;;12.07;11.07;;;21.00;99.90;;;;;;5029337;28;20419;-71
2023/06/11 00:55:08;;;;;;;11.90;10.70;;;20.80;99.90;;;;;;5029614;28;20413;-71
2023/06/11 00:57:35;;;;;;;11.67;10.70;;;20.80;99.90;;;;;;5029765;28;20918;-71
2023/06/11 01:00:03;;;;;;;11.87;10.87;;;20.80;99.90;;;;;;5029615;28;20460;-71
2023/06/11 01:02:36;;;;;;;11.37;10.47;;;20.80;99.90;;;;;;5028972;28;20413;-71
2023/06/11 01:05:04;;;;;;;11.70;10.70;;;20.70;99.90;;;;;;5029240;28;20451;-71
2023/06/11 01:07:35;;;;;;;11.60;10.60;;;20.70;99.90;;;;;;5029509;28;20436;-71
2023/06/11 01:10:03;;;;;;;12.53;11.53;;;20.80;99.90;;;;;;5029522;28;20418;-71
2023/06/11 01:12:28;;;;;;;12.17;11.07;;;20.70;99.90;;;;;;5027433;28;20524;-71
2023/06/11 01:14:54;;;;;;;12.23;11.23;;;20.70;99.90;;;;;;5029070;28;21116;-71
2023/06/11 01:17:35;;;;;;;11.30;10.10;;;20.70;99.90;;;;;;5029393;28;20178;-71
2023/06/11 01:20:25;;;;;;;11.80;10.80;;;20.60;99.90;;;;;;5029387;28;20212;-71
2023/06/11 01:23:11;;;;;;;11.40;10.50;;;20.60;99.90;;;;;;5028631;28;20417;-71
2023/06/11 01:25:44;;;;;;;10.90;10.00;;;20.60;99.90;;;;;;5029327;28;20810;-71
2023/06/11 01:28:16;;;;;;;12.07;11.00;;;20.50;99.90;;;;;;5020998;28;20517;-71
2023/06/11 01:30:47;;;;;;;12.20;11.13;;;20.50;99.90;;;;;;5009816;28;20410;-71
2023/06/11 01:33:13;;;;;;;10.90;9.80;;;20.50;99.90;;;;;;5008541;28;20414;-71
2023/06/11 01:35:43;;;;;;;11.63;10.63;;;20.50;99.90;;;;;;5009519;28;20425;-71
2023/06/11 01:38:09;;;;;;;11.10;10.20;;;20.50;99.90;;;;;;5009216;28;21002;-71
2023/06/11 01:40:35;;;;;;;11.60;10.60;;;20.50;99.90;;;;;;5009349;28;20461;-71
2023/06/11 01:43:02;;;;;;;10.37;9.47;;;20.50;99.90;;;;;;5008384;28;20808;-71
2023/06/11 01:45:33;;;;;;;11.67;10.70;;;20.50;99.90;;;;;;5009237;28;20520;-71
2023/06/11 01:47:59;;;;;;;12.07;11.10;;;20.40;99.90;;;;;;5009134;28;20437;-71
2023/06/11 01:50:24;;;;;;;13.00;10.77;;;20.40;99.90;;;;;;5009247;28;20941;-71
2023/06/11 01:52:51;;;;;;;11.40;10.30;;;20.30;99.90;;;;;;5008480;28;20410;-71
2023/06/11 01:55:17;;;;;;;11.50;10.40;;;20.30;99.90;;;;;;5009007;28;20179;-71
2023/06/11 01:57:43;;;;;;;11.67;10.53;;;20.30;99.90;;;;;;5007843;28;20464;-70
2023/06/11 02:00:10;;;;;;;11.00;10.10;;;20.30;99.90;;;;;;5008989;28;20309;-70
2023/06/11 02:02:38;;;;;;;10.90;9.90;;;20.20;99.90;;;;;;5008604;28;20922;-71
2023/06/11 02:05:04;;;;;;;11.00;10.00;;;20.30;99.90;;;;;;5008539;28;20442;-70
2023/06/11 02:07:30;;;;;;;12.57;11.57;;;20.30;99.90;;;;;;5008957;28;20955;-71
2023/06/11 02:09:55;;;;;;;12.30;11.10;;;20.20;99.90;;;;;;5007887;28;20415;-71
2023/06/11 02:12:21;;;;;;;12.83;11.70;;;20.30;99.90;;;;;;5006194;28;20179;-71
2023/06/11 02:14:47;;;;;;;12.00;10.90;;;20.30;99.90;;;;;;5008675;28;20753;-70
2023/06/11 02:17:12;;;;;;;12.23;11.10;;;20.20;99.90;;;;;;5009002;28;20179;-70
2023/06/11 02:19:38;;;;;;;11.20;10.20;;;20.20;99.90;;;;;;5009071;28;20184;-71
2023/06/11 02:22:04;;;;;;;11.53;10.53;;;20.10;99.90;;;;;;5007511;28;20245;-71
2023/06/11 02:24:30;;;;;;;12.00;11.00;;;20.10;99.90;;;;;;5008601;28;20406;-71
2023/06/11 02:26:56;;;;;;;12.40;11.20;;;20.00;99.90;;;;;;5008769;28;20195;-71
2023/06/11 02:29:21;;;;;;;12.17;11.07;;;19.90;99.90;;;;;;5026875;28;20229;-71
2023/06/11 02:31:48;;;;;;;12.07;11.17;;;19.90;99.90;;;;;;5026856;28;20559;-71
2023/06/11 02:34:13;;;;;;;10.90;9.90;;;19.80;99.90;;;;;;5028366;28;20175;-71
2023/06/11 02:36:40;;;;;;;12.97;11.90;;;19.70;99.90;;;;;;5028716;28;20417;-71
2023/06/11 02:39:06;;;;;;;13.10;11.87;;;19.60;99.90;;;;;;5028387;28;20198;-70
2023/06/11 02:41:32;;;;;;;12.60;11.47;;;19.60;99.90;;;;;;5026653;28;20464;-70
2023/06/11 02:43:58;;;;;;;12.33;10.47;;;19.60;99.90;;;;;;5028127;28;20309;-71
2023/06/11 02:46:24;;;;;;;12.60;11.40;;;19.60;99.90;;;;;;5028484;28;20505;-70
2023/06/11 02:48:50;;;;;;;12.03;11.03;;;19.60;99.90;;;;;;5028274;28;20198;-70
2023/06/11 02:51:15;;;;;;;12.67;11.67;;;19.50;99.90;;;;;;5027975;28;20182;-71
2023/06/11 02:53:42;;;;;;;11.90;10.90;;;19.50;99.90;;;;;;5027958;28;20572;-71
2023/06/11 02:56:07;;;;;;;11.47;10.57;;;19.50;99.90;;;;;;5028365;28;20263;-70
2023/06/11 02:58:33;;;;;;;12.10;11.10;;;19.50;99.90;;;;;;5028227;28;21013;-70
2023/06/11 03:00:59;;;;;;;12.23;11.33;;;19.60;99.90;;;;;;5028277;28;20209;-70
2023/06/11 03:03:24;;;;;;;11.57;10.67;;;19.60;99.90;;;;;;5027357;28;20181;-70
2023/06/11 03:05:50;;;;;;;11.70;10.83;;;19.50;99.90;;;;;;5028306;28;20273;-70
2023/06/11 03:08:16;;;;;;;12.17;11.17;;;19.40;99.90;;;;;;5028225;28;20201;-70
2023/06/11 03:10:41;;;;;;;11.80;10.83;;;19.40;99.90;;;;;;5030925;28;20175;-70
2023/06/11 03:13:07;;;;;;;11.60;10.60;;;19.40;99.90;;;;;;5030252;28;20194;-71
2023/06/11 03:15:33;;;;;;;12.93;11.73;;;19.30;99.90;;;;;;5032003;28;20171;-70
2023/06/11 03:17:59;;;;;;;12.60;11.50;;;19.30;99.90;;;;;;5031842;28;20201;-70
2023/06/11 03:20:24;;;;;;;12.67;11.43;;;19.30;99.90;;;;;;5031008;28;20456;-70
2023/06/11 03:22:50;;;;;;;12.43;11.43;;;19.30;99.90;;;;;;5030854;28;20178;-70
2023/06/11 03:25:16;;;;;;;11.87;10.97;;;19.30;99.90;;;;;;5031767;28;20281;-71
2023/06/11 03:27:41;;;;;;;12.40;11.20;;;19.30;99.90;;;;;;5027092;28;20249;-70
2023/06/11 03:30:08;;;;;;;12.90;11.63;;;19.20;99.90;;;;;;5012015;28;20540;-70
2023/06/11 03:32:33;;;;;;;13.10;11.80;;;19.20;99.90;;;;;;5011405;28;20718;-70
2023/06/11 03:34:59;;;;;;;12.53;11.20;;;19.10;99.90;;;;;;5011559;28;20422;-70
2023/06/11 03:37:25;;;;;;;13.10;12.00;;;19.00;99.90;;;;;;5010225;28;20214;-71
2023/06/11 03:39:50;;;;;;;12.93;11.70;;;18.90;99.90;;;;;;5011714;28;20203;-71
2023/06/11 03:42:16;;;;;;;11.57;10.67;;;18.90;99.90;;;;;;5010968;28;20268;-71
2023/06/11 03:44:42;;;;;;;12.43;11.40;;;18.80;99.90;;;;;;5011358;28;20171;-71
2023/06/11 03:47:08;;;;;;;14.27;11.10;;;18.70;99.90;;;;;;5011533;28;20182;-71
2023/06/11 03:49:33;;;;;;;11.67;10.77;;;18.70;99.90;;;;;;5011422;28;20263;-71
2023/06/11 03:51:59;;;;;;;12.43;11.43;;;18.70;99.90;;;;;;5010564;28;20632;-71
2023/06/11 03:54:25;;;;;;;11.77;10.80;;;18.60;99.90;;;;;;5010928;28;20176;-71
2023/06/11 03:56:51;;;;;;;12.23;11.13;;;18.60;99.90;;;;;;5011187;28;20460;-70
2023/06/11 03:59:17;;;;;;;12.33;11.33;;;18.60;99.90;;;;;;5011228;28;20838;-71
2023/06/11 04:01:43;;;;;;;12.63;11.43;;;18.50;99.90;;;;;;5010618;28;20268;-71
2023/06/11 04:04:09;;;;;;;11.90;11.00;;;18.50;99.90;;;;;;5010669;28;20700;-71
2023/06/11 04:06:38;;;;;;;12.50;11.50;;;18.50;99.90;;;;;;5011214;28;20494;-71
2023/06/11 04:09:05;;;;;;;12.20;11.10;;;18.60;99.90;;;;;;5010913;28;20195;-71
2023/06/11 04:11:31;;;;;;;11.93;10.93;;;18.70;99.90;;;;;;5010355;28;20486;-71
2023/06/11 04:13:56;;;;;;;13.03;11.87;;;18.70;99.90;;;;;;5010005;28;21025;-71
2023/06/11 04:16:22;;;;;;;12.97;11.97;;;18.70;99.90;;;;;;5010784;28;20521;-71
2023/06/11 04:18:48;;;;;;;12.33;11.33;;;18.70;99.90;;;;;;5010750;28;20194;-71
2023/06/11 04:21:14;;;;;;;12.53;11.50;;;18.70;99.90;;;;;;5009710;28;20221;-71
2023/06/11 04:23:40;;;;;;;12.23;11.23;;;18.70;99.90;;;;;;5009911;28;20683;-71
2023/06/11 04:26:10;;;;;;;12.43;11.43;;;18.80;99.90;;;;;;5010758;28;20939;-71
2023/06/11 04:28:36;;;;;;;11.77;10.77;;;18.90;99.90;;;;;;5022170;28;20441;-71
2023/06/11 04:31:04;;;;;;;11.13;10.23;;;19.00;99.90;;;;;;5030502;28;20980;-71
2023/06/11 04:33:33;;;;;;;11.90;11.00;;;19.20;99.90;;;;;;5027992;28;20467;-71
2023/06/11 04:36:07;;;;;;;10.83;10.03;;;19.30;99.90;;;;;;5030314;28;20428;-71
2023/06/11 04:38:34;;;;;;;11.40;10.40;;;19.40;99.90;;;;;;5028861;28;20950;-70
2023/06/11 04:41:00;;;;;;;11.50;10.57;;;19.60;99.90;;;;;;5029954;28;20587;-70
2023/06/11 04:43:26;;;;;;;11.57;10.67;;;19.70;99.90;;;;;;5029041;28;20408;-70
2023/06/11 04:45:59;;;;;;;12.10;11.10;;;19.80;99.90;;;;;;5030146;28;20406;-70
2023/06/11 04:48:27;;;;;;;12.00;10.80;;;19.90;99.90;;;;;;5029850;28;20433;-70
2023/06/11 04:50:53;;;;;;;11.70;10.70;;;20.00;99.90;;;;;;5029913;28;20413;-70
2023/06/11 04:53:27;;;;;;;11.17;10.07;;;20.00;99.90;;;;;;5028920;28;21203;-70
2023/06/11 04:55:57;;;;;;;11.40;10.33;;;20.20;99.90;;;;;;5029957;28;20414;-71
2023/06/11 04:58:26;;;;;;;11.20;10.10;;;20.20;99.90;;;;;;5029444;28;20440;-70
2023/06/11 05:00:57;;;;;;;11.73;10.77;;;20.30;99.90;;;;;;5028375;28;20464;-70
2023/06/11 05:03:24;;;;;;;10.80;10.00;;;20.40;99.90;;;;;;5028714;28;20421;-70
2023/06/11 05:05:51;;;;;;;11.47;10.47;;;20.50;99.90;;;;;;5029632;28;20795;-70
2023/06/11 05:08:18;;;;;;;11.60;10.70;;;20.60;99.90;;;;;;5029597;28;20774;-70
2023/06/11 05:10:44;;;;;;;10.37;9.60;;;20.70;99.90;;;;;;5028431;28;20467;-70
2023/06/11 05:13:11;;;;;;;11.37;10.03;;;20.80;99.90;;;;;;5027556;28;20416;-70
2023/06/11 05:15:37;;;;;;;11.17;10.07;;;20.90;99.90;;;;;;5029565;28;20448;-71
2023/06/11 05:18:03;;;;;;;10.60;9.70;;;21.00;99.90;;;;;;5029451;28;20453;-71
2023/06/11 05:20:29;;;;;;;10.80;9.90;;;21.00;99.90;;;;;;5028354;28;20214;-71
2023/06/11 05:22:58;;;;;;;11.47;10.47;;;21.10;99.90;;;;;;5028613;28;20167;-71
2023/06/11 05:25:28;;;;;;;10.77;9.87;;;21.20;99.90;;;;;;5028778;28;20452;-71
2023/06/11 05:28:01;;;;;;;11.53;10.43;;;21.30;99.90;;;;;;5023038;28;20470;-71
2023/06/11 05:30:29;;;;;;;12.03;10.93;;;21.30;99.90;;;;;;5008302;28;20410;-71
2023/06/11 05:32:56;;;;;;;10.80;9.70;;;21.40;99.90;;;;;;5008339;28;20982;-71
2023/06/11 05:35:25;;;;;;;11.30;10.20;;;21.50;99.90;;;;;;5009296;28;20406;-71
2023/06/11 05:37:52;;;;;;;11.87;10.87;;;21.50;99.90;;;;;;5009443;28;20438;-71
2023/06/11 05:40:18;;;;;;;10.87;9.97;;;21.60;99.90;;;;;;5008101;28;20454;-71
2023/06/11 05:42:44;;;;;;;11.73;10.67;;;21.80;99.90;;;;;;5008605;28;20792;-71
2023/06/11 05:45:10;;;;;;;10.90;10.00;;;21.90;99.90;;;;;;5007892;28;20525;-71
2023/06/11 05:47:35;;;;;;;12.57;10.03;;;22.00;99.90;;;;;;5009274;28;20233;-71
2023/06/11 05:50:01;;;;;;;10.73;9.80;;;22.10;99.90;;;;;;5009275;28;20205;-71
2023/06/11 05:52:27;;;;;;;11.00;10.10;;;22.20;99.90;;;;;;5008781;28;20187;-71
2023/06/11 05:54:53;;;;;;;10.87;9.97;;;22.40;99.90;;;;;;5008938;28;20183;-71
2023/06/11 05:57:19;;;;;;;10.90;9.90;;;22.50;99.90;;;;;;5009312;28;20430;-71
2023/06/11 05:59:46;;;;;;;19.63;10.87;;;22.70;99.90;;;;;;5008999;28;20410;-71
2023/06/11 06:02:11;;;;;;;9.90;9.10;;;22.90;99.90;;;;;;5008556;28;20503;-71
2023/06/11 06:04:37;;;;;;;10.50;9.60;;;23.00;99.90;;;;;;5008618;28;20596;-71
2023/06/11 06:07:03;;;;;;;11.23;10.23;;;23.20;99.90;;;;;;5008153;28;20163;-71
2023/06/11 06:09:29;;;;;;;10.37;9.47;;;23.30;99.90;;;;;;5008885;28;20485;-71
2023/06/11 06:11:54;;;;;;;10.80;9.70;;;23.50;99.90;;;;;;5006535;28;20459;-71
2023/06/11 06:14:20;;;;;;;9.97;9.20;;;23.60;99.90;;;;;;5008350;28;20194;-71
2023/06/11 06:16:46;;;;;;;9.80;9.10;;;23.80;99.90;;;;;;5009190;28;20187;-71
2023/06/11 06:19:12;;;;;;;11.03;9.00;;;24.00;99.90;;;;;;5008845;28;20285;-71
2023/06/11 06:21:38;;;;;;;9.97;9.27;;;24.10;99.90;;;;;;5007574;28;20349;-71
2023/06/11 06:24:04;;;;;;;9.87;8.97;;;24.20;99.90;;;;;;5008467;28;20512;-71
2023/06/11 06:26:30;;;;;;;10.70;9.90;;;24.40;99.90;;;;;;5008860;28;20764;-71
2023/06/11 06:28:56;;;;;;;11.10;10.20;;;24.50;99.90;;;;;;5022258;28;20946;-72
2023/06/11 06:31:24;;;;;;;10.07;9.17;;;24.50;99.90;;;;;;5027928;28;20413;-71
2023/06/11 06:33:50;;;;;;;9.60;8.80;;;24.60;99.90;;;;;;5028253;28;20413;-71
2023/06/11 06:36:19;;;;;;;11.17;10.27;;;24.70;99.90;;;;;;5028606;28;20511;-71
2023/06/11 06:38:45;;;;;;;10.67;9.80;;;24.80;99.90;;;;;;5028458;28;20437;-71
2023/06/11 06:41:11;;;;;;;10.23;9.30;;;24.90;99.90;;;;;;5028308;28;20457;-71
2023/06/11 06:43:37;;;;;;;10.83;9.90;;;25.00;99.90;;;;;;5027686;28;20410;-71
2023/06/11 06:46:03;;;;;;;10.60;9.60;;;25.10;99.90;;;;;;5031177;28;20175;-71
2023/06/11 06:48:29;;;;;;;10.37;9.10;;;25.10;99.90;;;;;;5032188;28;20205;-71
2023/06/11 06:50:54;;;;;;;11.27;10.40;;;25.20;99.80;;;;;;5032195;28;20586;-71
2023/06/11 06:53:20;;;;;;;10.00;9.17;;;25.30;98.90;;;;;;5031261;28;20171;-71
2023/06/11 06:55:46;;;;;;;9.40;8.60;;;25.40;98.80;;;;;;5032059;28;20204;-71
2023/06/11 06:58:12;;;;;;;10.47;9.43;;;25.40;99.00;;;;;;5032074;28;20285;-71
2023/06/11 07:00:38;;;;;;;9.67;8.83;;;25.50;98.80;;;;;;5031995;28;20489;-71
2023/06/11 07:03:03;;;;;;;10.07;9.13;;;25.60;97.80;;;;;;5031048;28;20185;-71
2023/06/11 07:05:29;;;;;;;11.03;10.03;;;25.70;98.20;;;;;;5031697;28;20221;-71
2023/06/11 07:07:55;;;;;;;10.67;9.67;;;25.80;98.40;;;;;;5031827;28;20222;-71
2023/06/11 07:10:20;;;;;;;9.67;8.97;;;25.80;98.20;;;;;;5031813;28;20186;-71
2023/06/11 07:12:48;;;;;;;10.00;9.00;;;25.90;97.90;;;;;;5029872;28;20234;-71
2023/06/11 07:15:13;;;;;;;9.90;9.20;;;26.00;97.60;;;;;;5031410;28;20421;-71
2023/06/11 07:17:39;;;;;;;10.10;9.20;;;26.00;97.00;;;;;;5030430;28;20437;-71
2023/06/11 07:20:07;;;;;;;10.40;9.60;;;26.00;97.90;;;;;;5031636;28;20206;-71
2023/06/11 07:22:33;;;;;;;9.87;9.00;;;26.00;98.10;;;;;;5030366;28;20262;-71
2023/06/11 07:25:00;;;;;;;9.53;8.83;;;26.10;97.20;;;;;;5031077;28;20841;-71
2023/06/11 07:27:26;;;;;;;9.63;8.93;;;26.20;97.20;;;;;;5029091;28;20587;-71
2023/06/11 07:29:52;;;;;;;9.97;7.70;;;26.20;96.90;;;;;;5011749;28;20416;-71
2023/06/11 07:32:18;;;;;;;9.47;8.67;;;26.20;96.40;;;;;;5010914;28;20414;-71
2023/06/11 07:34:44;;;;;;;9.80;8.87;;;26.20;96.40;;;;;;5011146;28;20305;-71
2023/06/11 07:37:10;;;;;;;9.20;8.30;;;26.20;97.20;;;;;;5011467;28;20190;-71
2023/06/11 07:39:35;;;;;;;9.60;8.60;;;26.20;95.50;;;;;;5011460;28;20183;-71
2023/06/11 07:42:04;;;;;;;8.90;8.10;;;26.10;95.40;;;;;;5009687;28;20209;-71
2023/06/11 07:44:30;;;;;;;8.77;8.10;;;26.10;95.50;;;;;;5011090;28;20218;-71
2023/06/11 07:46:56;;;;;;;8.53;7.60;;;26.10;95.40;;;;;;5011263;28;20460;-71
2023/06/11 07:49:22;;;;;;;8.07;7.47;;;26.00;94.90;;;;;;5011330;28;20195;-71
2023/06/11 07:51:47;;;;;;;8.40;7.70;;;26.00;95.30;;;;;;5010600;28;20760;-71
2023/06/11 07:54:13;;;;;;;9.07;8.17;;;26.00;94.60;;;;;;5010989;28;20219;-71
2023/06/11 07:56:39;;;;;;;7.80;7.20;;;26.00;95.40;;;;;;5010975;28;20179;-71
2023/06/11 07:59:05;;;;;;;7.03;6.50;;;26.10;95.50;;;;;;5011166;28;20207;-71
2023/06/11 08:01:30;;;;;;;7.23;6.63;;;26.00;94.10;;;;;;5010289;28;20218;-71
2023/06/11 08:03:56;;;;;;;6.13;5.63;;;26.00;94.00;;;;;;5010781;28;20189;-71
2023/06/11 08:06:23;;;;;;;6.80;6.30;;;26.00;94.20;;;;;;5010868;28;20281;-71
2023/06/11 08:08:48;;;;;;;6.73;6.17;;;25.90;94.30;;;;;;5010890;28;20429;-71
2023/06/11 08:11:14;;;;;;;6.23;5.73;;;25.80;93.70;;;;;;5010492;28;20424;-71
2023/06/11 08:13:40;;;;;;;7.13;6.53;;;25.80;94.30;;;;;;5008694;28;20547;-71
2023/06/11 08:16:07;;;;;;;6.00;5.50;;;25.70;93.70;;;;;;5010856;28;20182;-71
2023/06/11 08:18:33;;;;;;;7.40;6.67;;;25.60;94.20;;;;;;5010765;28;20822;-71
2023/06/11 08:21:00;;;;;;;6.97;6.30;;;25.60;94.40;;;;;;5008500;28;20457;-71
2023/06/11 08:23:25;;;;;;;6.30;5.90;;;25.60;94.80;;;;;;5010166;28;20966;-71
2023/06/11 08:25:51;;;;;;;8.50;6.27;;;25.70;94.60;;;;;;5010610;28;20437;-71
2023/06/11 08:28:17;;;;;;;7.20;6.60;;;25.60;94.10;;;;;;5019737;28;20194;-71
2023/06/11 08:30:42;;;;;;;7.37;6.77;;;25.60;94.70;;;;;;5030321;28;20655;-71
2023/06/11 08:33:08;;;;;;;7.03;6.53;;;25.60;94.40;;;;;;5029367;28;20178;-71
2023/06/11 08:35:34;;;;;;;7.00;6.40;;;25.70;94.70;;;;;;5030154;28;20678;-71
2023/06/11 08:38:00;;;;;;;7.00;6.50;;;25.80;95.10;;;;;;5030154;28;20429;-71
2023/06/11 08:40:26;;;;;;;7.33;6.63;;;25.80;94.90;;;;;;5030048;28;20630;-71
2023/06/11 08:42:52;;;;;;;8.20;6.67;;;26.00;95.00;;;;;;5029317;28;20717;-71
2023/06/11 08:45:18;;;;;;;7.43;6.83;;;26.10;94.30;;;;;;5029678;28;20394;-71
2023/06/11 08:47:49;;;;;;;7.03;6.53;;;26.20;93.90;;;;;;5028766;28;20441;-71
2023/06/11 08:50:18;;;;;;;7.00;6.40;;;26.20;93.80;;;;;;5030032;28;20175;-71
2023/06/11 08:52:48;;;;;;;7.30;6.70;;;26.20;94.00;;;;;;5029240;28;20411;-71
2023/06/11 08:55:14;;;;;;;6.13;5.73;;;26.20;93.30;;;;;;5028495;28;20421;-71
2023/06/11 08:57:41;;;;;;;6.70;6.10;;;26.30;92.70;;;;;;5029817;28;20429;-71
2023/06/11 09:00:09;;;;;;;7.13;6.63;;;26.20;92.40;;;;;;5028681;28;20539;-71
2023/06/11 09:02:35;;;;;;;6.63;6.13;;;26.20;92.30;;;;;;5029074;28;20441;-71
2023/06/11 09:05:03;;;;;;;7.00;6.50;;;26.30;92.70;;;;;;5029270;28;20429;-71
2023/06/11 09:07:29;;;;;;;6.90;6.40;;;26.40;92.70;;;;;;5028945;28;20472;-71
2023/06/11 09:10:08;;;;;;;10.80;7.20;;;26.50;91.90;;;;;;5029828;28;20437;-71
2023/06/11 09:12:33;;;;;;;7.63;7.00;;;26.60;90.90;;;;;;5028826;28;20701;-71
2023/06/11 09:14:59;;;;;;;6.60;6.10;;;26.60;91.20;;;;;;5029188;28;20405;-71
2023/06/11 09:17:33;;;;;;;6.90;6.30;;;26.70;91.20;;;;;;5029302;28;20289;-71
2023/06/11 09:20:04;;;;;;;7.43;6.83;;;26.70;91.10;;;;;;5029437;28;21197;-70
2023/06/11 09:22:30;;;;;;;8.00;7.20;;;26.80;90.20;;;;;;5027833;28;20914;-71
2023/06/11 09:24:56;;;;;;;7.27;6.77;;;26.70;89.20;;;;;;5029023;28;20419;-70
2023/06/11 09:27:22;;;;;;;9.37;7.20;;;26.70;89.70;;;;;;5027360;28;20906;-71
2023/06/11 09:29:48;;;;;;;7.40;6.80;;;26.80;89.10;;;;;;5009606;28;20541;-71
2023/06/11 09:32:13;;;;;;;7.80;7.30;;;26.90;90.00;;;;;;5009054;28;20416;-71
2023/06/11 09:34:42;;;;;;;7.23;6.70;;;27.00;89.50;;;;;;5009277;28;20201;-71
2023/06/11 09:37:11;;;;;;;8.43;7.60;;;27.10;89.50;;;;;;5009337;28;20183;-71
2023/06/11 09:39:39;;;;;;;7.80;7.20;;;27.20;89.00;;;;;;5009465;28;20464;-71
2023/06/11 09:42:05;;;;;;;8.30;7.60;;;27.30;88.70;;;;;;5008642;28;20465;-71
2023/06/11 09:44:34;;;;;;;7.60;7.10;;;27.40;88.40;;;;;;5009105;28;20402;-70
2023/06/11 09:47:00;;;;;;;8.07;7.50;;;27.40;89.20;;;;;;5009253;28;20420;-71
2023/06/11 09:49:27;;;;;;;8.70;7.90;;;27.40;88.80;;;;;;5008984;28;20442;-71
2023/06/11 09:51:56;;;;;;;7.57;7.07;;;27.50;87.40;;;;;;5008557;28;20418;-71
2023/06/11 09:54:22;;;;;;;9.33;8.50;;;27.50;86.80;;;;;;5008995;28;20421;-71
2023/06/11 09:56:48;;;;;;;8.03;7.30;;;27.60;87.30;;;;;;5009286;28;20418;-71
2023/06/11 09:59:17;;;;;;;7.83;7.27;;;27.60;85.70;;;;;;5009067;28;20438;-71
2023/06/11 10:01:47;;;;;;;8.20;7.40;;;27.70;83.00;;;;;;5008314;28;20211;-71
2023/06/11 10:04:12;;;;;;;8.20;7.60;;;27.70;82.50;;;;;;5008622;28;20418;-71
2023/06/11 10:06:46;;;;;;;8.20;7.50;;;27.60;82.60;;;;;;5009058;28;20494;-71
2023/06/11 10:09:15;;;;;;;8.17;7.37;;;27.70;84.00;;;;;;5009016;28;20199;-71
2023/06/11 10:11:41;;;;;;;8.10;7.40;;;27.70;83.60;;;;;;5008780;28;20946;-71
2023/06/11 10:14:12;;;;;;;7.80;7.20;;;27.80;80.00;;;;;;5008809;28;20421;-71
2023/06/11 10:16:38;;;;;;;7.60;7.00;;;27.90;78.30;;;;;;5008926;28;20409;-71
2023/06/11 10:19:09;;;;;;;7.67;6.87;;;27.90;77.30;;;;;;5010273;28;20473;-71
2023/06/11 10:21:49;;;;;;;9.30;7.97;;;28.00;77.80;;;;;;5012461;28;20856;-71
2023/06/11 10:24:25;;;;;;;9.47;7.37;;;28.10;77.80;;;;;;5012527;28;20414;-71
2023/06/11 10:27:10;;;;;;;7.87;7.27;;;28.20;81.40;;;;;;5012881;28;20417;-71
2023/06/11 10:29:41;;;;;;;8.07;7.37;;;28.10;77.30;;;;;;5012983;28;21189;-71
2023/06/11 10:32:19;;;;;;;8.10;7.40;;;28.10;77.20;;;;;;5012083;28;20846;-71
2023/06/11 10:34:47;;;;;;;8.70;7.80;;;28.00;77.40;;;;;;5012625;28;20413;-71
2023/06/11 10:37:13;;;;;;;7.50;6.90;;;28.00;75.90;;;;;;5012535;28;20449;-71
2023/06/11 10:39:52;;;;;;;8.33;7.13;;;28.00;75.50;;;;;;5012840;28;20828;-71
2023/06/11 10:42:26;;;;;;;10.07;7.80;;;28.10;74.20;;;;;;5012004;28;20761;-71
2023/06/11 10:44:58;;;;;;;8.40;7.30;;;28.20;74.60;;;;;;5012377;28;20397;-71
2023/06/11 10:47:25;;;;;;;8.50;7.70;;;28.30;75.80;;;;;;5010988;28;20417;-71
2023/06/11 10:49:51;;;;;;;8.50;7.70;;;28.30;76.20;;;;;;5012555;28;20446;-71
2023/06/11 10:52:16;;;;;;;7.70;7.10;;;28.20;75.70;;;;;;5011575;28;20481;-71
2023/06/11 10:54:45;;;;;;;8.20;7.40;;;28.20;75.40;;;;;;5012088;28;20179;-71
2023/06/11 10:57:11;;;;;;;8.53;7.83;;;28.30;75.40;;;;;;5012196;28;20299;-71
2023/06/11 10:59:38;;;;;;;8.40;7.70;;;28.40;73.20;;;;;;5011271;28;20406;-71
2023/06/11 11:02:04;;;;;;;8.50;7.80;;;28.40;71.00;;;;;;5011476;28;20884;-71
2023/06/11 11:04:29;;;;;;;8.27;7.60;;;28.40;73.50;;;;;;5011717;28;20425;-71
2023/06/11 11:07:09;;;;;;;9.40;8.60;;;28.40;72.80;;;;;;5012223;28;20199;-71
2023/06/11 11:09:35;;;;;;;10.60;8.27;;;28.40;71.10;;;;;;5012302;28;20167;-71
2023/06/11 11:12:01;;;;;;;8.27;7.47;;;28.40;70.10;;;;;;5010011;28;20480;-71
2023/06/11 11:14:29;;;;;;;8.77;7.97;;;28.40;70.10;;;;;;5011739;28;21066;-71
2023/06/11 11:16:55;;;;;;;8.27;7.63;;;28.40;70.20;;;;;;5011971;28;20414;-71
2023/06/11 11:19:25;;;;;;;7.47;6.87;;;28.50;70.10;;;;;;5012006;28;20760;-71
2023/06/11 11:21:51;;;;;;;8.00;7.40;;;28.50;68.30;;;;;;5010183;28;20457;-71
2023/06/11 11:24:17;;;;;;;8.30;7.70;;;28.60;67.80;;;;;;5011560;28;20410;-71
2023/06/11 11:26:44;;;;;;;8.53;7.70;;;28.70;68.40;;;;;;5012065;28;20911;-71
2023/06/11 11:29:10;;;;;;;8.27;7.67;;;28.80;66.80;;;;;;5028111;28;20437;-71
2023/06/11 11:31:37;;;;;;;8.47;7.83;;;28.90;67.30;;;;;;5030408;28;20777;-71
2023/06/11 11:34:02;;;;;;;8.40;7.67;;;28.80;66.40;;;;;;5031121;28;20202;-71
2023/06/11 11:36:30;;;;;;;9.70;8.70;;;28.70;69.20;;;;;;5031649;28;20467;-71
2023/06/11 11:38:55;;;;;;;8.70;8.00;;;28.60;69.10;;;;;;5031162;28;20615;-71
2023/06/11 11:41:24;;;;;;;10.07;8.93;;;28.60;70.10;;;;;;5030595;28;20453;-71
2023/06/11 11:43:50;;;;;;;9.23;8.33;;;28.60;66.80;;;;;;5030752;28;20214;-71
2023/06/11 11:46:25;;;;;;;8.70;7.90;;;28.50;68.30;;;;;;5031343;28;20413;-71
2023/06/11 11:48:55;;;;;;;8.50;7.80;;;28.40;70.00;;;;;;5031168;28;20869;-71
2023/06/11 11:51:23;;;;;;;9.50;8.70;;;28.30;70.90;;;;;;5030614;28;20876;-71
2023/06/11 11:53:51;;;;;;;11.10;9.60;;;28.20;71.80;;;;;;5030526;28;20466;-71
2023/06/11 11:56:17;;;;;;;9.57;8.87;;;28.10;72.40;;;;;;5031053;28;20417;-71
2023/06/11 11:58:44;;;;;;;9.20;8.30;;;28.10;73.50;;;;;;5030752;28;20941;-71
2023/06/11 12:01:21;;;;;;;8.60;7.90;;;28.10;71.60;;;;;;5030739;28;20464;-71
2023/06/11 12:04:05;;;;;;;9.30;8.60;;;28.10;72.20;;;;;;5030537;28;20413;-71
2023/06/11 12:06:31;;;;;;;8.40;7.80;;;28.30;72.50;;;;;;5029834;28;20507;-71
2023/06/11 12:08:56;;;;;;;9.03;8.17;;;28.40;71.50;;;;;;5030713;28;20496;-71
2023/06/11 12:11:22;;;;;;;10.50;9.20;;;28.60;70.90;;;;;;5030211;28;20182;-71
2023/06/11 12:13:48;;;;;;;9.10;8.30;;;28.70;71.30;;;;;;5029330;28;20176;-71
2023/06/11 12:16:14;;;;;;;9.20;8.50;;;28.70;71.00;;;;;;5030731;28;20750;-71
2023/06/11 12:18:40;;;;;;;9.33;8.50;;;28.60;68.50;;;;;;5030291;28;20190;-71
2023/06/11 12:21:07;;;;;;;8.93;8.23;;;28.50;68.70;;;;;;5029781;28;20535;-71
2023/06/11 12:23:33;;;;;;;9.10;8.20;;;28.40;68.90;;;;;;5029821;28;20269;-71
2023/06/11 12:26:00;;;;;;;8.50;7.87;;;28.40;69.40;;;;;;5030577;28;20429;-71
2023/06/11 12:28:25;;;;;;;9.10;8.40;;;28.40;70.00;;;;;;5019851;28;20442;-71
2023/06/11 12:30:51;;;;;;;9.57;8.80;;;28.40;69.70;;;;;;5010638;28;20421;-71
2023/06/11 12:33:17;;;;;;;8.60;7.90;;;28.30;70.40;;;;;;5009634;28;20179;-71
2023/06/11 12:35:43;;;;;;;8.50;7.90;;;28.40;70.40;;;;;;5010712;28;20179;-71
2023/06/11 12:38:10;;;;;;;8.83;8.13;;;28.50;68.70;;;;;;5010186;28;20256;-71